Flight Track Log - Related Links

Times and Time Zones

All times are in EDT time to prevent confusion due to time zone crossing. See the SWA756 flight status page for this flight to view local times or setup timezone preferences in your user account.

Time Position Orientation Groundspeed Altitude Reporting Facility
EDT Latitude Longitude Course Direction KTS MPH feet Rate Location/Type
Mon 08:50:52 PM 32.8167 -96.8000 190° South 181 208 3,500  Level Dallas TRACON
Mon 08:51:52 PM 32.7833 -96.7500 128° Southeast 222 255 6,000 2,350 Climbing Dallas TRACON
Mon 08:52:52 PM 32.7333 -96.6833 132° Southeast 244 281 8,200 2,876 Climbing Dallas TRACON
Mon 08:53:53 PM 32.6833 -96.6333 140° Southeast 267 307 11,800 2,976 Climbing Dallas TRACON
Mon 08:54:55 PM 32.6247 -96.6906 219° Southwest 252 290 14,300 3,246 Climbing Fort Center
Mon 08:55:55 PM 32.5519 -96.7700 223° Southwest 300 345 18,400 3,650 Climbing Fort Center
Mon 08:56:00 PM 32.3825 -97.0862 190° South  Level Estimated
Mon 08:56:55 PM 32.4750 -96.8422 218° Southwest 343 395 21,600  Level Fort Center
Mon 08:57:55 PM 32.3647 -96.8747 194° South 383 441 24,700 3,000 Climbing Fort Center
Mon 08:58:55 PM 32.2519 -96.9025 192° South 408 470 27,600 3,000 Climbing Fort Center
Mon 08:59:55 PM 32.1353 -96.9325 192° South 420 483 30,700 2,900 Climbing Fort Center
Mon 09:00:55 PM 32.0267 -96.9625 193° South 419 482 33,400 1,650 Climbing Fort Center
Mon 09:01:55 PM 31.9161 -96.9925 193° South 411 473 34,000 252 Climbing Fort Center
Mon 09:03:18 PM 31.7656 -97.0247 190° South 420 483 34,000  Level Houston Center
Mon 09:04:19 PM 31.6500 -97.0533 192° South 421 484 34,000  Level Houston Center
Mon 09:05:21 PM 31.5333 -97.0825 192° South 421 484 34,000  Level Houston Center
Mon 09:06:23 PM 31.4206 -97.1250 198° South 422 486 34,000  Level Houston Center
Mon 09:07:24 PM 31.3081 -97.1700 199° South 423 487 34,000  Level Houston Center
Mon 09:08:26 PM 31.1778 -97.2217 199° South 421 484 34,000  Level Houston Center
Mon 09:09:27 PM 31.0664 -97.2653 199° South 420 483 34,000  Level Houston Center
Mon 09:10:29 PM 30.9542 -97.3078 198° South 425 489 34,000  Level Houston Center
Mon 09:11:30 PM 30.8447 -97.3503 198° South 429 494 34,000  Level Houston Center
Mon 09:12:32 PM 30.7342 -97.3925 198° South 421 484 34,000 -339 Level Houston Center
Mon 09:13:34 PM 30.6244 -97.4356 199° South 415 478 33,300 -2,146 Descending Houston Center
Mon 09:14:35 PM 30.4958 -97.4867 199° South 414 476 29,600 -3,268 Descending Houston Center
Mon 09:15:37 PM 30.3836 -97.5283 198° South 417 480 26,600 -2,780 Descending Houston Center
Mon 09:16:38 PM 30.2856 -97.5947 210° Southwest 406 467 23,900 -2,585 Descending Houston Center
Mon 09:17:40 PM 30.1908 -97.6597 211° Southwest 394 453 21,300 -2,571 Descending Houston Center
Mon 09:18:23 PM 30.1214 -97.7078 211° Southwest 384 442 19,400 -2,459 Descending Houston Center
Mon 09:18:41 PM 30.0994 -97.7225 210° Southwest 381 438 18,800 -2,475 Descending Houston Center
Mon 09:19:43 PM 30.0064 -97.7872 211° Southwest 368 423 16,100 -2,673 Descending Houston Center
Mon 09:20:31 PM 29.9342 -97.8378 211° Southwest 359 413 13,900 -1,864 Descending Houston Center
Mon 09:21:26 PM 29.8794 -97.9028 226° Southwest 338 389 12,900 -1,120 Descending Houston Center
Mon 09:21:46 PM 29.8636 -97.9408 244° Southwest 338 389 12,500 -1,000 Descending Houston Center
Mon 09:22:20 PM 29.8422 -97.9942 245° Southwest 336 387 12,000 -871 Descending Houston Center
Mon 09:22:48 PM 29.8228 -98.0389 243° Southwest 340 391 11,600 -986 Descending Houston Center
Mon 09:23:33 PM 29.7925 -98.1136 245° Southwest 340 391 10,800 -1,180 Descending Houston Center
Mon 09:23:49 PM 29.7789 -98.1431 242° Southwest 336 387 10,400 -889 Descending Houston Center
Mon 09:24:27 PM 29.7561 -98.1950 243° Southwest 305 351 10,000 -871 Descending Houston Center
Mon 09:24:51 PM 29.7433 -98.2267 245° Southwest 294 338 9,500 -1,082 Descending Houston Center
Mon 09:25:28 PM 29.7236 -98.2761 245° Southwest 271 312 8,900 -984 Descending Houston Center
Mon 09:25:52 PM 29.7097 -98.3053 241° Southwest 277 319 8,500 -1,377 Descending Houston Center
Mon 09:26:29 PM 29.6975 -98.3564 255° West 272 313 7,500 -1,645 Descending Houston Center
Mon 09:26:54 PM 29.6894 -98.3950 257° West 271 312 6,800 -1,364 Descending Houston Center
Mon 09:27:35 PM 29.6853 -98.4517 265° West 263 303 6,000 -1,574 Descending Houston Center
Mon 09:27:55 PM 29.6836 -98.4775 266° West 261 300 5,200 -1,522 Descending Houston Center
Mon 09:28:42 PM 29.6856 -98.5453 272° West 272 313 4,300 -968 Descending Houston Center
Mon 09:28:57 PM 29.6850 -98.5625 268° West 267 307 4,200 -545 Descending Houston Center
Mon 09:29:37 PM 29.6583 -98.5919 224° Southwest 198 228 3,800 -590 Descending Houston Center
Mon 09:29:58 PM 29.6411 -98.5928 182° South 182 209 3,600 -778 Descending Houston Center
Mon 09:30:31 PM 29.6219 -98.5842 159° South 130 150 3,100 -968 Descending Houston Center
Mon 09:31:00 PM 29.6067 -98.5683 138° Southeast 146 168 2,600 -787 Descending Houston Center
Mon 09:31:32 PM 29.5936 -98.5514 132° Southeast 125 144 2,300 -492 Descending Houston Center
Mon 09:32:01 PM 29.5839 -98.5369 128° Southeast 131 151 2,100 -556 Descending Houston Center
Mon 09:32:26 PM 29.5744 -98.5250 132° Southeast 118 136 1,800 -689 Descending Houston Center
Mon 09:33:02 PM 29.5600 -98.5075 133° Southeast 120 138 1,400 -655 Descending Houston Center
Mon 09:33:21 PM 29.5533 -98.4986 131° Southeast 120 138 1,200 -581 Descending Houston Center
Mon 09:34:04 PM 29.5419 -98.4828 130° Southeast 120 138 800 -558 Descending Houston Center
Mon 09:36:00 PM 29.5340 -98.4691 172° South  Level Estimated
Mon 09:43:00 PM 29.5333 -98.4667 16° North  Level FlightAware

Login

Don't have an account? Register now (free) for customized features, flight alerts, and more!